createdAt,value
2023-01-17T00:00:22.856Z,6.59
2023-01-17T00:01:19.691Z,5.90
2023-01-17T00:02:18.526Z,6.11
2023-01-17T00:03:15.410Z,5.58
2023-01-17T00:04:31.283Z,5.89
2023-01-17T00:05:46.884Z,5.84
2023-01-17T00:07:02.553Z,6.68
2023-01-17T00:08:38.033Z,6.22
2023-01-17T00:09:52.956Z,3.11
2023-01-17T00:10:49.884Z,5.43
2023-01-17T00:11:46.728Z,6.03
2023-01-17T00:12:52.429Z,5.97
2023-01-17T00:13:49.293Z,6.95
2023-01-17T00:14:46.846Z,7.03
2023-01-17T00:15:43.658Z,7.06
2023-01-17T00:16:40.492Z,6.65
2023-01-17T00:17:37.371Z,6.05
2023-01-17T00:18:34.229Z,6.55
2023-01-17T00:19:49.648Z,6.26
2023-01-17T00:21:05.181Z,4.98
2023-01-17T00:22:20.388Z,6.71
2023-01-17T00:23:43.281Z,6.52
2023-01-17T00:24:58.555Z,6.34
2023-01-17T00:26:04.623Z,5.56
2023-01-17T00:27:13.461Z,4.79
2023-01-17T00:28:11.148Z,5.79
2023-01-17T00:29:08.000Z,6.62
2023-01-17T00:30:05.322Z,5.88
2023-01-17T00:31:03.321Z,6.44
2023-01-17T00:32:00.096Z,6.78
2023-01-17T00:32:56.879Z,6.86
2023-01-17T00:33:53.716Z,4.25
2023-01-17T00:34:50.496Z,6.48
2023-01-17T00:35:48.175Z,6.78
2023-01-17T00:36:44.892Z,5.63
2023-01-17T00:37:41.685Z,6.40
2023-01-17T00:38:39.998Z,6.33
2023-01-17T00:39:38.791Z,6.23
2023-01-17T00:40:38.649Z,6.55
2023-01-17T00:41:35.524Z,6.23
2023-01-17T00:42:32.594Z,6.82
2023-01-17T00:43:49.592Z,7.28
2023-01-17T00:45:05.337Z,7.08
2023-01-17T00:46:21.013Z,4.65
2023-01-17T00:47:36.356Z,5.34
2023-01-17T00:48:52.573Z,6.65
2023-01-17T00:50:08.171Z,6.98
2023-01-17T00:51:23.413Z,5.87
2023-01-17T00:52:39.059Z,5.47
2023-01-17T00:53:54.642Z,6.19
2023-01-17T00:55:10.112Z,6.21
2023-01-17T00:56:25.617Z,5.12
2023-01-17T00:57:41.243Z,6.96
2023-01-17T00:58:56.507Z,6.39
2023-01-17T01:00:11.922Z,5.64
2023-01-17T01:01:29.276Z,6.45
2023-01-17T01:02:45.598Z,6.55
2023-01-17T01:04:01.149Z,6.54
2023-01-17T01:05:16.951Z,6.78
2023-01-17T01:06:32.295Z,6.31
2023-01-17T01:07:47.861Z,7.13
2023-01-17T01:09:03.267Z,7.23
2023-01-17T01:10:18.933Z,6.92
2023-01-17T01:11:38.057Z,6.38
2023-01-17T01:12:53.651Z,5.73
2023-01-17T01:14:08.840Z,6.04
2023-01-17T01:15:24.851Z,6.11
2023-01-17T01:16:40.170Z,6.83
2023-01-17T01:17:55.809Z,6.73
2023-01-17T01:19:11.355Z,6.46
2023-01-17T01:20:27.402Z,6.57
2023-01-17T01:21:42.658Z,6.00
2023-01-17T01:22:57.997Z,6.01
2023-01-17T01:24:13.317Z,4.41
2023-01-17T01:25:28.839Z,6.73
2023-01-17T01:26:44.389Z,6.90
2023-01-17T01:27:59.517Z,5.56
2023-01-17T01:29:14.808Z,6.40
2023-01-17T01:30:30.246Z,4.35
2023-01-17T01:31:45.968Z,7.04
2023-01-17T01:33:02.195Z,5.85
2023-01-17T01:33:59.060Z,7.04
2023-01-17T01:34:57.166Z,6.41
2023-01-17T01:35:55.745Z,6.94
2023-01-17T01:36:52.638Z,7.07
2023-01-17T01:37:49.929Z,6.65
2023-01-17T01:38:46.807Z,6.52
2023-01-17T01:39:43.754Z,5.97
2023-01-17T01:40:49.823Z,3.75
2023-01-17T01:41:46.760Z,7.01
2023-01-17T01:42:54.835Z,5.83
2023-01-17T01:43:54.892Z,6.53
2023-01-17T01:44:54.133Z,6.22
2023-01-17T01:45:58.318Z,3.77
2023-01-17T01:46:55.296Z,5.33
2023-01-17T01:48:07.172Z,6.40
2023-01-17T01:49:25.929Z,6.06
2023-01-17T01:50:23.519Z,6.87
2023-01-17T01:51:35.212Z,6.96
2023-01-17T01:52:36.818Z,6.57
2023-01-17T01:53:38.774Z,5.82
2023-01-17T01:54:59.633Z,5.50
2023-01-17T01:55:56.765Z,5.97
2023-01-17T01:56:58.429Z,6.12
2023-01-17T01:58:02.170Z,6.42
2023-01-17T01:59:04.595Z,6.64
2023-01-17T02:00:11.735Z,6.84
2023-01-17T02:01:09.714Z,5.83
2023-01-17T02:02:07.982Z,5.87
2023-01-17T02:03:10.939Z,6.84
2023-01-17T02:04:10.041Z,6.48
2023-01-17T02:05:07.799Z,6.94
2023-01-17T02:06:24.453Z,3.25
2023-01-17T02:07:33.311Z,5.79
2023-01-17T02:08:31.733Z,6.56
2023-01-17T02:09:28.800Z,5.54
2023-01-17T02:10:25.726Z,6.52
2023-01-17T02:11:22.760Z,5.76
2023-01-17T02:12:21.098Z,7.01
2023-01-17T02:13:20.973Z,2.86
2023-01-17T02:14:20.144Z,3.23
2023-01-17T02:15:17.088Z,4.25
2023-01-17T02:16:43.918Z,6.11
2023-01-17T02:18:22.987Z,6.80
2023-01-17T02:19:44.231Z,6.98
2023-01-17T02:20:46.947Z,7.19
2023-01-17T02:22:39.138Z,6.88
2023-01-17T02:24:17.470Z,7.12
2023-01-17T02:25:35.770Z,7.22
2023-01-17T02:26:50.718Z,6.22
2023-01-17T02:27:50.532Z,7.36
2023-01-17T02:29:32.344Z,7.05
2023-01-17T02:30:29.109Z,7.33
2023-01-17T02:31:55.227Z,3.07
2023-01-17T02:33:02.757Z,5.45
2023-01-17T02:34:22.586Z,7.09
2023-01-17T02:35:31.382Z,5.56
2023-01-17T02:36:39.294Z,6.63
2023-01-17T02:38:02.557Z,5.87
2023-01-17T02:39:19.859Z,5.84
2023-01-17T02:40:26.333Z,6.93
2023-01-17T02:41:35.747Z,6.54
2023-01-17T02:42:45.261Z,6.19
2023-01-17T02:43:42.125Z,6.38
2023-01-17T02:44:43.894Z,7.03
2023-01-17T02:45:41.022Z,7.31
2023-01-17T02:46:49.211Z,6.58
2023-01-17T02:47:46.482Z,7.15
2023-01-17T02:48:46.274Z,6.62
2023-01-17T02:49:43.142Z,6.36
2023-01-17T02:51:14.937Z,6.65
2023-01-17T02:52:20.978Z,6.30
2023-01-17T02:53:31.147Z,6.23
2023-01-17T02:54:52.456Z,6.73
2023-01-17T02:55:54.213Z,7.02
2023-01-17T02:56:53.983Z,6.73
2023-01-17T02:58:24.268Z,6.71
2023-01-17T02:59:40.797Z,6.38
2023-01-17T03:00:48.063Z,6.06
2023-01-17T03:02:07.822Z,6.98
2023-01-17T03:03:46.658Z,7.06
2023-01-17T03:04:58.649Z,7.12
2023-01-17T03:06:12.595Z,7.24
2023-01-17T03:07:19.663Z,7.16
2023-01-17T03:08:18.348Z,6.92
2023-01-17T03:09:18.560Z,4.66
2023-01-17T03:10:18.936Z,6.73
2023-01-17T03:11:16.659Z,6.57
2023-01-17T03:12:13.930Z,6.91
2023-01-17T03:13:10.799Z,6.56
2023-01-17T03:14:07.604Z,6.55
2023-01-17T03:15:13.099Z,6.35
2023-01-17T03:16:18.779Z,5.38
2023-01-17T03:17:15.733Z,5.67
2023-01-17T03:18:15.505Z,5.88
2023-01-17T03:19:14.778Z,6.51
2023-01-17T03:20:12.470Z,6.71
2023-01-17T03:21:09.376Z,6.69
2023-01-17T03:22:06.146Z,5.57
2023-01-17T03:23:03.022Z,6.72
2023-01-17T03:23:59.877Z,6.09
2023-01-17T03:24:56.705Z,6.69
2023-01-17T03:25:53.596Z,5.91
2023-01-17T03:26:50.336Z,6.99
2023-01-17T03:27:47.273Z,6.43
2023-01-17T03:28:44.675Z,6.29
2023-01-17T03:29:41.497Z,5.57
2023-01-17T03:30:38.333Z,6.18
2023-01-17T03:31:35.157Z,6.58
2023-01-17T03:32:31.950Z,7.14
2023-01-17T03:33:28.982Z,6.96
2023-01-17T03:34:25.868Z,6.86
2023-01-17T03:35:22.623Z,6.92
2023-01-17T03:36:20.326Z,6.32
2023-01-17T03:37:17.220Z,6.61
2023-01-17T03:38:15.077Z,5.21
2023-01-17T03:39:11.896Z,6.69
2023-01-17T03:40:09.507Z,5.95
2023-01-17T03:41:07.345Z,5.66
2023-01-17T03:42:04.241Z,5.51
2023-01-17T03:43:01.077Z,6.03
2023-01-17T03:43:57.971Z,5.72
2023-01-17T03:44:54.842Z,6.57
2023-01-17T03:45:54.547Z,6.66
2023-01-17T03:46:51.482Z,5.62
2023-01-17T03:47:48.340Z,5.91
2023-01-17T03:48:45.290Z,6.72
2023-01-17T03:49:42.132Z,5.73
2023-01-17T03:50:38.918Z,6.45
2023-01-17T03:51:35.743Z,6.47
2023-01-17T03:52:32.707Z,6.89
2023-01-17T03:53:29.530Z,6.34
2023-01-17T03:54:26.284Z,6.32
2023-01-17T03:55:23.145Z,7.24
2023-01-17T03:56:20.021Z,6.26
2023-01-17T03:57:16.766Z,5.58
2023-01-17T03:58:13.545Z,6.09
2023-01-17T03:59:13.080Z,7.37
2023-01-17T04:00:11.491Z,7.19
2023-01-17T04:01:19.982Z,7.05
2023-01-17T04:02:19.765Z,3.84
2023-01-17T04:03:16.625Z,6.65
2023-01-17T04:04:14.972Z,5.59
2023-01-17T04:05:11.869Z,6.12
2023-01-17T04:06:08.747Z,6.91
2023-01-17T04:07:05.699Z,7.23
2023-01-17T04:08:03.196Z,7.11
2023-01-17T04:09:00.117Z,6.08
2023-01-17T04:09:57.075Z,5.26
2023-01-17T04:10:54.199Z,7.34
2023-01-17T04:11:51.120Z,7.18
2023-01-17T04:12:48.053Z,7.27
2023-01-17T04:13:44.849Z,7.36
2023-01-17T04:14:41.825Z,7.52
2023-01-17T04:15:38.734Z,6.41
2023-01-17T04:16:38.329Z,6.73
2023-01-17T04:17:35.503Z,7.01
2023-01-17T04:18:32.241Z,7.49
2023-01-17T04:19:31.334Z,7.67
2023-01-17T04:20:38.270Z,6.97
2023-01-17T04:21:34.998Z,7.68
2023-01-17T04:22:31.782Z,7.65
2023-01-17T04:23:28.625Z,6.41
2023-01-17T04:24:25.534Z,6.47
2023-01-17T04:25:22.358Z,7.55
2023-01-17T04:26:19.194Z,6.92
2023-01-17T04:27:16.072Z,6.51
2023-01-17T04:28:13.003Z,7.49
2023-01-17T04:29:09.854Z,6.91
2023-01-17T04:30:07.182Z,7.18
2023-01-17T04:31:04.101Z,7.60
2023-01-17T04:32:00.949Z,7.61
2023-01-17T04:32:58.047Z,7.02
2023-01-17T04:33:54.771Z,7.22
2023-01-17T04:34:51.524Z,7.15
2023-01-17T04:35:48.315Z,6.22
2023-01-17T04:36:45.863Z,7.34
2023-01-17T04:37:43.684Z,7.23
2023-01-17T04:38:40.483Z,6.54
2023-01-17T04:39:37.279Z,7.09
2023-01-17T04:40:34.035Z,6.37
2023-01-17T04:41:31.037Z,6.89
2023-01-17T04:42:27.775Z,7.61
2023-01-17T04:43:24.564Z,6.94
2023-01-17T04:44:21.367Z,7.08
2023-01-17T04:45:18.209Z,7.29
2023-01-17T04:46:14.974Z,6.12
2023-01-17T04:47:11.931Z,6.09
2023-01-17T04:48:12.592Z,7.06
2023-01-17T04:49:09.432Z,7.39
2023-01-17T04:50:07.486Z,7.65
2023-01-17T04:51:05.825Z,7.63
2023-01-17T04:52:02.588Z,7.97
2023-01-17T04:53:00.249Z,7.82
2023-01-17T04:53:57.065Z,7.89
2023-01-17T04:54:53.987Z,6.78
2023-01-17T04:55:50.783Z,7.49
2023-01-17T04:56:47.626Z,7.56
2023-01-17T04:57:44.395Z,7.66
2023-01-17T04:58:41.217Z,7.23
2023-01-17T04:59:37.961Z,7.66
2023-01-17T05:00:34.803Z,7.43
2023-01-17T05:01:31.793Z,6.89
2023-01-17T05:02:28.783Z,7.71
2023-01-17T05:03:25.592Z,7.01
2023-01-17T05:04:22.463Z,6.63
2023-01-17T05:05:19.208Z,7.58
2023-01-17T05:06:16.368Z,7.43
2023-01-17T05:07:15.508Z,7.51
2023-01-17T05:08:12.339Z,7.14
2023-01-17T05:09:09.165Z,7.17
2023-01-17T05:10:06.402Z,7.36
2023-01-17T05:11:03.294Z,7.28
2023-01-17T05:12:00.154Z,6.67
2023-01-17T05:12:59.241Z,7.76
2023-01-17T05:13:56.010Z,7.63
2023-01-17T05:14:52.847Z,7.67
2023-01-17T05:15:50.559Z,8.00
2023-01-17T05:16:47.445Z,7.03
2023-01-17T05:17:44.264Z,6.78
2023-01-17T05:18:41.083Z,7.55
2023-01-17T05:19:37.837Z,7.44
2023-01-17T05:20:36.634Z,6.76
2023-01-17T05:21:33.639Z,5.49
2023-01-17T05:22:30.400Z,7.48
2023-01-17T05:23:27.157Z,6.69
2023-01-17T05:24:23.993Z,7.98
2023-01-17T05:25:21.737Z,7.63
2023-01-17T05:26:18.633Z,7.49
2023-01-17T05:27:15.695Z,8.05
2023-01-17T05:28:13.435Z,6.32
2023-01-17T05:29:10.581Z,7.45
2023-01-17T05:30:07.914Z,7.58
2023-01-17T05:31:04.828Z,7.36
2023-01-17T05:32:01.729Z,6.51
2023-01-17T05:32:59.646Z,7.46
2023-01-17T05:33:56.479Z,7.71
2023-01-17T05:34:53.294Z,6.67
2023-01-17T05:35:50.109Z,7.16
2023-01-17T05:36:46.845Z,7.60
2023-01-17T05:37:49.133Z,6.43
2023-01-17T05:38:46.060Z,7.11
2023-01-17T05:39:43.196Z,7.33
2023-01-17T05:40:39.954Z,7.69
2023-01-17T05:41:36.698Z,7.63
2023-01-17T05:42:33.895Z,7.26
2023-01-17T05:43:31.276Z,6.65
2023-01-17T05:44:28.108Z,7.21
2023-01-17T05:45:27.224Z,6.81
2023-01-17T05:46:24.017Z,7.35
2023-01-17T05:47:20.822Z,7.36
2023-01-17T05:48:17.666Z,7.51
2023-01-17T05:49:14.421Z,7.80
2023-01-17T05:50:13.923Z,7.38
2023-01-17T05:51:10.958Z,7.38
2023-01-17T05:52:10.117Z,6.73
2023-01-17T05:53:12.635Z,7.53
2023-01-17T05:54:09.429Z,7.28
2023-01-17T05:55:09.513Z,7.38
2023-01-17T05:56:06.759Z,7.87
2023-01-17T05:57:03.755Z,8.01
2023-01-17T05:58:01.368Z,6.67
2023-01-17T05:58:58.187Z,7.42
2023-01-17T05:59:55.003Z,7.41
2023-01-17T06:00:54.995Z,7.42
2023-01-17T06:01:51.871Z,7.23
2023-01-17T06:02:49.918Z,7.20
2023-01-17T06:03:46.895Z,7.41
2023-01-17T06:04:43.797Z,8.30
2023-01-17T06:05:41.169Z,8.35
2023-01-17T06:06:38.002Z,7.26
2023-01-17T06:07:34.879Z,8.16
2023-01-17T06:08:31.748Z,8.22
2023-01-17T06:09:28.662Z,7.59
2023-01-17T06:10:27.163Z,8.22
2023-01-17T06:11:24.120Z,8.58
2023-01-17T06:12:22.153Z,6.58
2023-01-17T06:13:21.977Z,7.19
2023-01-17T06:14:18.832Z,7.09
2023-01-17T06:15:18.361Z,7.44
2023-01-17T06:16:15.241Z,7.84
2023-01-17T06:17:12.203Z,7.67
2023-01-17T06:18:12.011Z,7.69
2023-01-17T06:19:10.650Z,8.37
2023-01-17T06:20:09.605Z,8.00
2023-01-17T06:21:06.570Z,7.55
2023-01-17T06:22:04.744Z,6.52
2023-01-17T06:23:04.401Z,7.58
2023-01-17T06:24:02.706Z,7.59
2023-01-17T06:25:01.127Z,7.41
2023-01-17T06:25:57.866Z,6.89
2023-01-17T06:26:54.643Z,8.10
2023-01-17T06:27:55.469Z,7.16
2023-01-17T06:28:52.340Z,8.32
2023-01-17T06:29:49.138Z,7.95
2023-01-17T06:30:49.190Z,6.96
2023-01-17T06:31:47.267Z,6.98
2023-01-17T06:32:44.117Z,4.41
2023-01-17T06:33:41.123Z,7.02
2023-01-17T06:34:38.401Z,7.44
2023-01-17T06:35:35.438Z,6.17
2023-01-17T06:36:35.040Z,6.37
2023-01-17T06:37:31.899Z,6.98
2023-01-17T06:38:30.026Z,6.19
2023-01-17T06:39:26.801Z,7.50
2023-01-17T06:40:25.091Z,6.75
2023-01-17T06:41:23.463Z,6.87
2023-01-17T06:42:20.482Z,3.69
2023-01-17T06:43:17.371Z,7.67
2023-01-17T06:44:14.345Z,6.78
2023-01-17T06:45:11.971Z,7.89
2023-01-17T06:46:08.822Z,7.02
2023-01-17T06:47:05.729Z,7.25
2023-01-17T06:48:05.324Z,7.47
2023-01-17T06:49:04.100Z,7.30
2023-01-17T06:50:02.751Z,8.32
2023-01-17T06:51:02.464Z,7.59
2023-01-17T06:51:59.473Z,7.80
2023-01-17T06:53:02.076Z,8.20
2023-01-17T06:53:58.843Z,7.60
2023-01-17T06:54:56.034Z,7.71
2023-01-17T06:55:56.467Z,8.16
2023-01-17T06:56:53.280Z,8.46
2023-01-17T06:57:50.780Z,7.95
2023-01-17T06:58:51.471Z,8.61
2023-01-17T06:59:48.261Z,7.61
2023-01-17T07:00:45.836Z,7.42
2023-01-17T07:01:42.759Z,8.65
2023-01-17T07:02:39.679Z,8.44
2023-01-17T07:03:36.634Z,8.93
2023-01-17T07:04:34.696Z,8.32
2023-01-17T07:05:31.482Z,8.93
2023-01-17T07:06:28.987Z,8.83
2023-01-17T07:07:25.775Z,8.30
2023-01-17T07:08:22.524Z,8.67
2023-01-17T07:09:19.274Z,9.52
2023-01-17T07:10:16.595Z,8.60
2023-01-17T07:11:13.708Z,8.85
2023-01-17T07:12:10.634Z,8.85
2023-01-17T07:13:07.450Z,8.81
2023-01-17T07:14:04.226Z,8.97
2023-01-17T07:15:01.109Z,8.44
2023-01-17T07:16:01.298Z,9.15
2023-01-17T07:16:58.307Z,9.13
2023-01-17T07:17:55.107Z,8.34
2023-01-17T07:18:52.136Z,9.15
2023-01-17T07:19:49.023Z,9.23
2023-01-17T07:20:45.937Z,9.52
2023-01-17T07:21:42.763Z,9.58
2023-01-17T07:22:39.670Z,8.51
2023-01-17T07:23:36.562Z,10.16
2023-01-17T07:24:36.440Z,9.78
2023-01-17T07:25:33.369Z,9.05
2023-01-17T07:26:30.253Z,10.39
2023-01-17T07:27:30.504Z,9.55
2023-01-17T07:28:28.572Z,10.23
2023-01-17T07:29:25.447Z,11.03
2023-01-17T07:30:22.247Z,11.12
2023-01-17T07:31:19.065Z,11.26
2023-01-17T07:32:15.826Z,11.28
2023-01-17T07:33:12.782Z,11.34
2023-01-17T07:34:09.780Z,11.16
2023-01-17T07:35:07.158Z,11.83
2023-01-17T07:36:08.574Z,11.76
2023-01-17T07:37:06.377Z,11.46
2023-01-17T07:38:03.851Z,12.14
2023-01-17T07:39:00.750Z,12.17
2023-01-17T07:39:57.675Z,12.20
2023-01-17T07:40:58.577Z,12.44
2023-01-17T07:41:55.417Z,11.88
2023-01-17T07:42:52.320Z,12.18
2023-01-17T07:43:49.806Z,11.52
2023-01-17T07:44:46.743Z,11.16
2023-01-17T07:45:51.599Z,12.52
2023-01-17T07:46:48.395Z,12.47
2023-01-17T07:47:45.650Z,12.43
2023-01-17T07:48:42.553Z,11.73
2023-01-17T07:49:39.703Z,11.22
2023-01-17T07:50:37.493Z,12.76
2023-01-17T07:51:34.362Z,12.75
2023-01-17T07:52:31.747Z,12.14
2023-01-17T07:53:30.986Z,12.56
2023-01-17T07:54:27.807Z,12.71
2023-01-17T07:55:24.602Z,12.64
2023-01-17T07:56:21.527Z,12.66
2023-01-17T07:57:18.383Z,12.84
2023-01-17T07:58:15.491Z,12.77
2023-01-17T07:59:12.332Z,13.06
2023-01-17T08:00:10.626Z,12.51
2023-01-17T08:01:10.770Z,12.48
2023-01-17T08:02:19.593Z,10.25
2023-01-17T08:03:17.963Z,10.72
2023-01-17T08:04:14.814Z,11.58
2023-01-17T08:05:11.685Z,12.32
2023-01-17T08:06:22.107Z,12.22
2023-01-17T08:07:18.906Z,12.02
2023-01-17T08:08:17.793Z,12.94
2023-01-17T08:09:14.716Z,12.06
2023-01-17T08:10:13.227Z,11.57
2023-01-17T08:11:10.334Z,12.06
2023-01-17T08:12:09.084Z,13.01
2023-01-17T08:13:05.931Z,12.81
2023-01-17T08:14:03.071Z,12.97
2023-01-17T08:14:59.897Z,13.09
2023-01-17T08:15:56.692Z,12.71
2023-01-17T08:16:53.815Z,12.67
2023-01-17T08:17:58.822Z,10.07
2023-01-17T08:18:56.151Z,12.84
2023-01-17T08:19:53.347Z,12.31
2023-01-17T08:20:50.112Z,12.50
2023-01-17T08:21:47.079Z,13.06
2023-01-17T08:22:43.832Z,13.66
2023-01-17T08:23:40.723Z,13.52
2023-01-17T08:24:38.112Z,12.14
2023-01-17T08:25:35.479Z,13.24
2023-01-17T08:26:32.232Z,13.74
2023-01-17T08:27:29.827Z,13.73
2023-01-17T08:28:26.657Z,12.94
2023-01-17T08:29:24.454Z,13.50
2023-01-17T08:30:21.404Z,13.00
2023-01-17T08:31:19.861Z,12.64
2023-01-17T08:32:16.822Z,13.76
2023-01-17T08:33:13.583Z,13.98
2023-01-17T08:34:10.576Z,13.61
2023-01-17T08:35:09.377Z,13.52
2023-01-17T08:36:06.265Z,13.56
2023-01-17T08:37:05.945Z,13.65
2023-01-17T08:38:05.011Z,12.98
2023-01-17T08:39:01.863Z,13.57
2023-01-17T08:39:58.696Z,12.61
2023-01-17T08:40:56.137Z,13.52
2023-01-17T08:41:53.074Z,14.00
2023-01-17T08:42:57.368Z,13.25
2023-01-17T08:43:54.323Z,11.65
2023-01-17T08:44:51.124Z,13.99
2023-01-17T08:45:50.100Z,13.89
2023-01-17T08:46:46.950Z,12.86
2023-01-17T08:47:43.795Z,14.30
2023-01-17T08:48:40.691Z,12.38
2023-01-17T08:49:37.585Z,13.74
2023-01-17T08:50:36.247Z,14.29
2023-01-17T08:51:33.615Z,13.79
2023-01-17T08:52:30.547Z,13.91
2023-01-17T08:53:27.583Z,13.82
2023-01-17T08:54:25.814Z,13.29
2023-01-17T08:55:22.622Z,13.38
2023-01-17T08:56:19.547Z,13.96
2023-01-17T08:57:16.511Z,13.67
2023-01-17T08:58:17.191Z,12.71
2023-01-17T08:59:14.192Z,12.24
2023-01-17T09:00:11.561Z,14.02
2023-01-17T09:01:08.383Z,13.64
2023-01-17T09:02:06.886Z,12.69
2023-01-17T09:03:03.994Z,13.59
2023-01-17T09:04:00.776Z,13.95
2023-01-17T09:04:57.623Z,14.02
2023-01-17T09:06:05.420Z,14.14
2023-01-17T09:07:02.706Z,13.48
2023-01-17T09:07:59.547Z,13.55
2023-01-17T09:08:57.028Z,13.62
2023-01-17T09:09:53.794Z,14.10
2023-01-17T09:10:50.562Z,13.55
2023-01-17T09:11:47.406Z,14.08
2023-01-17T09:12:44.466Z,13.55
2023-01-17T09:13:41.776Z,13.06
2023-01-17T09:14:38.791Z,13.72
2023-01-17T09:15:35.615Z,14.20
2023-01-17T09:16:32.466Z,14.51
2023-01-17T09:17:29.289Z,14.72
2023-01-17T09:18:27.783Z,14.84
2023-01-17T09:19:27.798Z,13.56
2023-01-17T09:20:25.141Z,14.42
2023-01-17T09:21:22.073Z,13.27
2023-01-17T09:22:18.940Z,14.09
2023-01-17T09:23:15.889Z,12.85
2023-01-17T09:24:12.761Z,14.33
2023-01-17T09:25:09.821Z,14.62
2023-01-17T09:26:06.852Z,13.77
2023-01-17T09:27:07.180Z,14.66
2023-01-17T09:28:04.082Z,14.69
2023-01-17T09:29:00.909Z,14.03
2023-01-17T09:29:57.803Z,14.25
2023-01-17T09:30:55.250Z,14.36
2023-01-17T09:31:52.063Z,13.78
2023-01-17T09:32:58.515Z,14.05
2023-01-17T09:33:57.174Z,13.30
2023-01-17T09:34:53.994Z,12.94
2023-01-17T09:35:50.825Z,12.88
2023-01-17T09:36:47.612Z,13.57
2023-01-17T09:37:44.961Z,13.19
2023-01-17T09:38:42.817Z,14.54
2023-01-17T09:39:39.533Z,13.02
2023-01-17T09:40:42.185Z,14.23
2023-01-17T09:42:03.526Z,14.44
2023-01-17T09:43:07.549Z,14.01
2023-01-17T09:44:23.432Z,14.36
2023-01-17T09:45:21.454Z,14.43
2023-01-17T09:46:24.384Z,13.43
2023-01-17T09:47:32.819Z,14.08
2023-01-17T09:48:38.775Z,14.02
2023-01-17T09:49:44.162Z,14.30
2023-01-17T09:50:49.488Z,14.21
2023-01-17T09:51:46.292Z,14.47
2023-01-17T09:52:44.457Z,13.64
2023-01-17T09:53:46.298Z,13.72
2023-01-17T09:54:47.020Z,14.08
2023-01-17T09:55:53.160Z,13.42
2023-01-17T09:57:11.347Z,12.79
2023-01-17T09:58:24.235Z,14.53
2023-01-17T09:59:45.916Z,14.49
2023-01-17T10:01:07.652Z,14.88
2023-01-17T10:02:30.722Z,14.10
2023-01-17T10:03:37.605Z,14.59
2023-01-17T10:04:52.822Z,14.77
2023-01-17T10:06:25.016Z,13.88
2023-01-17T10:07:41.913Z,15.21
2023-01-17T10:09:16.794Z,14.75
2023-01-17T10:10:36.673Z,13.45
2023-01-17T10:12:09.959Z,14.56
2023-01-17T10:13:38.735Z,14.97
2023-01-17T10:14:54.154Z,14.59
2023-01-17T10:16:02.869Z,14.81
2023-01-17T10:17:21.268Z,14.39
2023-01-17T10:18:30.691Z,14.40
2023-01-17T10:20:01.462Z,14.58
2023-01-17T10:21:41.648Z,14.38
2023-01-17T10:23:14.391Z,11.33
2023-01-17T10:24:36.533Z,14.95
2023-01-17T10:25:44.008Z,14.55
2023-01-17T10:26:42.054Z,14.57
2023-01-17T10:27:55.858Z,13.53
2023-01-17T10:29:00.783Z,12.42
2023-01-17T10:30:01.135Z,14.20
2023-01-17T10:31:14.048Z,13.97
2023-01-17T10:32:13.856Z,13.02
2023-01-17T10:33:32.330Z,13.93
2023-01-17T10:34:45.434Z,14.27
2023-01-17T10:35:57.107Z,10.29
2023-01-17T10:37:05.943Z,13.68
2023-01-17T10:38:13.094Z,13.67
2023-01-17T10:39:25.735Z,14.23
2023-01-17T10:40:27.470Z,14.39
2023-01-17T10:41:37.197Z,14.27
2023-01-17T10:42:50.896Z,13.89
2023-01-17T10:44:09.068Z,13.75
2023-01-17T10:45:13.198Z,14.17
2023-01-17T10:46:22.113Z,12.63
2023-01-17T10:47:23.502Z,14.60
2023-01-17T10:48:39.944Z,12.72
2023-01-17T10:49:45.609Z,14.32
2023-01-17T10:51:00.710Z,13.55
2023-01-17T10:52:06.538Z,13.70
2023-01-17T10:53:16.395Z,14.19
2023-01-17T10:55:08.817Z,14.69
2023-01-17T10:56:07.160Z,14.64
2023-01-17T10:57:04.598Z,14.43
2023-01-17T10:58:03.447Z,14.59
2023-01-17T10:59:14.823Z,14.21
2023-01-17T11:00:22.032Z,13.61
2023-01-17T11:01:21.039Z,14.41
2023-01-17T11:02:20.682Z,14.01
2023-01-17T11:03:24.003Z,14.25
2023-01-17T11:04:38.689Z,13.26
2023-01-17T11:05:35.633Z,13.82
2023-01-17T11:06:33.342Z,13.90
2023-01-17T11:07:30.161Z,11.93
2023-01-17T11:08:27.022Z,13.00
2023-01-17T11:09:47.312Z,13.61
2023-01-17T11:10:57.309Z,13.43
2023-01-17T11:11:54.405Z,12.59
2023-01-17T11:12:51.620Z,14.26
2023-01-17T11:13:51.395Z,14.16
2023-01-17T11:15:09.310Z,14.40
2023-01-17T11:16:21.459Z,12.82
2023-01-17T11:17:20.233Z,13.71
2023-01-17T11:18:21.923Z,13.33
2023-01-17T11:19:21.279Z,14.10
2023-01-17T11:20:45.546Z,14.22
2023-01-17T11:21:57.724Z,13.66
2023-01-17T11:23:22.687Z,14.48
2023-01-17T11:24:45.434Z,13.97
2023-01-17T11:25:58.194Z,13.94
2023-01-17T11:26:55.460Z,14.23
2023-01-17T11:28:05.676Z,13.41
2023-01-17T11:29:27.156Z,14.25
2023-01-17T11:30:29.424Z,14.25
2023-01-17T11:31:27.330Z,12.93
2023-01-17T11:32:32.176Z,13.22
2023-01-17T11:33:45.540Z,13.85
2023-01-17T11:34:42.296Z,14.28
2023-01-17T11:35:45.446Z,14.29
2023-01-17T11:36:43.270Z,13.68
2023-01-17T11:37:49.706Z,14.01
2023-01-17T11:39:14.288Z,14.63
2023-01-17T11:40:28.393Z,14.46
2023-01-17T11:41:28.277Z,14.40
2023-01-17T11:42:38.797Z,14.75
2023-01-17T11:43:53.721Z,14.43
2023-01-17T11:44:50.529Z,14.31
2023-01-17T11:46:14.616Z,13.61
2023-01-17T11:47:14.211Z,13.98
2023-01-17T11:48:14.703Z,14.39
2023-01-17T11:49:24.684Z,14.19
2023-01-17T11:50:26.583Z,14.39
2023-01-17T11:51:33.808Z,13.52
2023-01-17T11:52:39.039Z,14.43
2023-01-17T11:53:40.504Z,14.18
2023-01-17T11:54:40.486Z,14.49
2023-01-17T11:55:37.542Z,14.70
2023-01-17T11:56:37.374Z,14.28
2023-01-17T11:57:36.348Z,14.58
2023-01-17T11:58:38.423Z,14.58
2023-01-17T11:59:37.705Z,14.44
2023-01-17T12:00:46.175Z,13.87
2023-01-17T12:02:20.261Z,14.42
2023-01-17T12:03:25.876Z,14.08
2023-01-17T12:04:51.830Z,12.73
2023-01-17T12:06:08.091Z,14.16
2023-01-17T12:07:22.584Z,13.42
2023-01-17T12:08:36.759Z,14.81
2023-01-17T12:09:45.632Z,14.52
2023-01-17T12:10:48.272Z,14.09
2023-01-17T12:12:39.255Z,14.23
2023-01-17T12:14:00.745Z,14.69
2023-01-17T12:15:19.290Z,14.70
2023-01-17T12:16:34.875Z,14.81
2023-01-17T12:17:58.639Z,14.85
2023-01-17T12:19:10.333Z,14.72
2023-01-17T12:20:22.764Z,14.40
2023-01-17T12:21:43.075Z,14.09
2023-01-17T12:23:19.777Z,14.43
2023-01-17T12:24:16.519Z,14.82
2023-01-17T12:25:43.384Z,14.59
2023-01-17T12:27:16.350Z,13.71
2023-01-17T12:28:44.968Z,14.81
2023-01-17T12:30:00.583Z,14.96
2023-01-17T12:31:07.184Z,15.13
2023-01-17T12:32:38.453Z,14.83
2023-01-17T12:33:51.714Z,14.78
2023-01-17T12:35:09.568Z,14.38
2023-01-17T12:36:19.757Z,14.34
2023-01-17T12:37:34.503Z,14.05
2023-01-17T12:38:37.768Z,14.92
2023-01-17T12:39:43.361Z,14.06
2023-01-17T12:41:00.295Z,14.67
2023-01-17T12:42:18.726Z,14.36
2023-01-17T12:43:29.054Z,13.59
2023-01-17T12:45:07.756Z,14.29
2023-01-17T12:46:28.357Z,13.59
2023-01-17T12:47:25.771Z,14.56
2023-01-17T12:48:28.615Z,15.02
2023-01-17T12:49:41.645Z,15.22
2023-01-17T12:50:44.585Z,14.66
2023-01-17T12:51:47.463Z,14.69
2023-01-17T12:52:59.194Z,14.76
2023-01-17T12:54:15.717Z,14.89
2023-01-17T12:55:20.488Z,13.41
2023-01-17T12:56:33.824Z,14.85
2023-01-17T12:57:40.731Z,14.09
2023-01-17T12:58:44.790Z,14.74
2023-01-17T12:59:56.206Z,14.19
2023-01-17T13:01:39.820Z,14.41
2023-01-17T13:02:59.360Z,15.01
2023-01-17T13:04:58.786Z,14.91
2023-01-17T13:05:57.773Z,14.91
2023-01-17T13:07:00.433Z,14.92
2023-01-17T13:08:20.218Z,14.80
2023-01-17T13:09:22.497Z,14.75
2023-01-17T13:10:32.094Z,14.63
2023-01-17T13:11:44.216Z,14.67
2023-01-17T13:12:42.510Z,13.71
2023-01-17T13:13:41.425Z,14.12
2023-01-17T13:14:38.316Z,14.83
2023-01-17T13:15:40.649Z,13.56
2023-01-17T13:16:48.823Z,14.52
2023-01-17T13:17:56.906Z,14.31
2023-01-17T13:19:00.456Z,13.94
2023-01-17T13:19:57.163Z,14.66
2023-01-17T13:21:18.693Z,14.45
2023-01-17T13:22:21.855Z,14.05
2023-01-17T13:23:59.204Z,11.45
2023-01-17T13:25:03.231Z,14.91
2023-01-17T13:26:03.291Z,15.06
2023-01-17T13:27:19.891Z,13.46
2023-01-17T13:28:36.156Z,15.00
2023-01-17T13:30:10.145Z,14.91
2023-01-17T13:31:45.005Z,14.56
2023-01-17T13:32:44.887Z,15.04
2023-01-17T13:34:13.896Z,15.14
2023-01-17T13:35:22.801Z,14.63
2023-01-17T13:36:51.775Z,15.23
2023-01-17T13:38:42.718Z,15.05
2023-01-17T13:39:58.753Z,15.19
2023-01-17T13:41:13.056Z,14.95
2023-01-17T13:42:24.624Z,14.96
2023-01-17T13:43:37.745Z,14.74
2023-01-17T13:44:34.582Z,14.96
2023-01-17T13:45:35.675Z,14.20
2023-01-17T13:46:55.743Z,10.98
2023-01-17T13:47:54.171Z,14.97
2023-01-17T13:49:29.443Z,15.07
2023-01-17T13:50:41.108Z,14.21
2023-01-17T13:52:27.173Z,15.27
2023-01-17T13:53:36.747Z,15.28
2023-01-17T13:54:34.085Z,15.26
2023-01-17T13:55:53.999Z,15.26
2023-01-17T13:57:27.893Z,15.33